Time;durP1;ratioP1;P1;durP2;ratioP2;P2;SDS_P1;SDS_P2;PMS_P1;PMS_P2;Temp;Humidity;BMP_temperature;BMP_pressure;BME280_temperature;BME280_humidity;BME280_pressure;Samples;Min_cycle;Max_cycle;Signal;HPM_P1;HPM_P2
2022/07/20 14:31:47;;;;;;;0.10;0.10;;;;;;;;;;4993526;28;20100;-89
2022/07/20 14:34:13;;;;;;;0.10;0.10;;;;;;;;;;4994825;28;20482;-89
2022/07/20 14:36:39;;;;;;;0.10;0.10;;;;;;;;;;4994907;28;20034;-89
2022/07/20 14:39:05;;;;;;;0.10;0.10;;;;;;;;;;4994548;28;20433;-90
2022/07/20 14:41:31;;;;;;;0.10;0.10;;;;;;;;;;4994762;28;20489;-88
2022/07/20 14:43:57;;;;;;;0.10;0.10;;;;;;;;;;4994120;28;20482;-88
2022/07/20 14:46:23;;;;;;;0.10;0.10;;;;;;;;;;4994557;28;20026;-89
2022/07/20 14:48:49;;;;;;;0.10;0.10;;;;;;;;;;4994289;28;20039;-90
2022/07/20 14:51:15;;;;;;;0.10;0.10;;;;;;;;;;4994324;28;20034;-89
2022/07/20 14:53:43;;;;;;;0.10;0.10;;;;;;;;;;4994074;28;20026;-89
2022/07/20 14:56:10;;;;;;;0.10;0.10;;;;;;;;;;4994548;28;20462;-90
2022/07/20 14:58:36;;;;;;;0.10;0.10;;;;;;;;;;4992977;28;20026;-87
2022/07/20 15:01:02;;;;;;;0.10;0.10;;;;;;;;;;4994096;28;20030;-89
2022/07/20 15:03:28;;;;;;;0.10;0.10;;;;;;;;;;4994365;28;20026;-93
2022/07/20 15:05:54;;;;;;;0.10;0.10;;;;;;;;;;4994116;28;20126;-92
2022/07/20 15:08:20;;;;;;;0.10;0.10;;;;;;;;;;4992967;28;20367;-90
2022/07/20 15:10:46;;;;;;;0.10;0.10;;;;;;;;;;4993555;28;20400;-89
2022/07/20 15:13:12;;;;;;;0.05;0.05;;;;;;;;;;4994078;28;20030;-90
2022/07/20 15:15:38;;;;;;;0.10;0.10;;;;;;;;;;4994268;28;20022;-93
2022/07/20 15:18:04;;;;;;;0.10;0.10;;;;;;;;;;4994028;28;20031;-92
2022/07/20 15:20:30;;;;;;;0.10;0.10;;;;;;;;;;4993782;28;20030;-92
2022/07/20 15:22:56;;;;;;;0.10;0.10;;;;;;;;;;4993802;28;20034;-90
2022/07/20 15:25:22;;;;;;;0.10;0.10;;;;;;;;;;4993696;28;20427;-90
2022/07/20 15:27:49;;;;;;;0.10;0.10;;;;;;;;;;4993572;28;20474;-90
2022/07/20 15:30:15;;;;;;;0.10;0.10;;;;;;;;;;4993688;28;20034;-92
2022/07/20 15:32:41;;;;;;;0.10;0.10;;;;;;;;;;4993702;28;20085;-88
2022/07/20 15:35:07;;;;;;;0.05;0.05;;;;;;;;;;4993610;28;20034;-91
2022/07/20 15:37:33;;;;;;;0.10;0.10;;;;;;;;;;4993615;28;20089;-90
2022/07/20 15:39:59;;;;;;;0.10;0.10;;;;;;;;;;4993111;28;20023;-88
2022/07/20 15:42:25;;;;;;;0.10;0.10;;;;;;;;;;4993497;28;20027;-89
2022/07/20 15:44:52;;;;;;;0.10;0.10;;;;;;;;;;4991780;28;20029;-87
2022/07/20 15:47:18;;;;;;;0.08;0.08;;;;;;;;;;4993571;28;20026;-89
2022/07/20 15:49:45;;;;;;;0.10;0.10;;;;;;;;;;4991746;28;20398;-87
2022/07/20 15:52:11;;;;;;;0.10;0.10;;;;;;;;;;4992075;28;20509;-89
2022/07/20 15:54:37;;;;;;;0.00;0.00;;;;;;;;;;4993084;28;20026;-89
2022/07/20 15:57:19;;;;;;;0.10;0.10;;;;;;;;;;4992691;28;20129;-88
2022/07/20 15:59:49;;;;;;;0.10;0.10;;;;;;;;;;4992682;28;20390;-89
2022/07/20 16:02:15;;;;;;;0.10;0.10;;;;;;;;;;4993106;28;20026;-87
2022/07/20 16:04:43;;;;;;;0.10;0.10;;;;;;;;;;4993070;28;20023;-89
2022/07/20 16:07:09;;;;;;;0.10;0.10;;;;;;;;;;4993037;28;20022;-89
2022/07/20 16:09:35;;;;;;;0.10;0.10;;;;;;;;;;4992998;28;20026;-86
2022/07/20 16:12:01;;;;;;;0.10;0.10;;;;;;;;;;4978697;28;20033;-77
2022/07/20 16:14:27;;;;;;;0.08;0.08;;;;;;;;;;4973240;28;20027;-83
2022/07/20 16:16:53;;;;;;;0.10;0.10;;;;;;;;;;4972990;28;20372;-78
2022/07/20 16:19:19;;;;;;;0.30;0.30;;;;;;;;;;4973179;28;20037;-86
2022/07/20 16:21:45;;;;;;;0.10;0.10;;;;;;;;;;4976907;28;20027;-87
2022/07/20 16:24:11;;;;;;;0.10;0.10;;;;;;;;;;4973842;28;20038;-82
2022/07/20 16:26:37;;;;;;;0.10;0.10;;;;;;;;;;4973109;28;20027;-79
2022/07/20 16:29:03;;;;;;;0.10;0.10;;;;;;;;;;4972724;28;20035;-80
2022/07/20 16:31:29;;;;;;;0.10;0.10;;;;;;;;;;4972859;28;20398;-80
2022/07/20 16:33:56;;;;;;;0.10;0.10;;;;;;;;;;4972783;28;20501;-82
2022/07/20 16:36:22;;;;;;;0.10;0.10;;;;;;;;;;4972936;28;20421;-83
2022/07/20 16:38:48;;;;;;;0.10;0.10;;;;;;;;;;4988344;28;20398;-82
2022/07/20 16:41:14;;;;;;;0.03;0.03;;;;;;;;;;4992527;28;20030;-81
2022/07/20 16:43:40;;;;;;;0.10;0.10;;;;;;;;;;4992364;28;20568;-81
2022/07/20 16:46:06;;;;;;;0.10;0.10;;;;;;;;;;4991712;28;20053;-79
2022/07/20 16:48:32;;;;;;;0.10;0.10;;;;;;;;;;4991742;28;20030;-80
2022/07/20 16:50:58;;;;;;;0.10;0.10;;;;;;;;;;4991862;28;20917;-81
2022/07/20 16:53:24;;;;;;;0.10;0.10;;;;;;;;;;4992172;28;20034;-82
2022/07/20 16:55:55;;;;;;;0.47;0.47;;;;;;;;;;4991161;28;20038;-83
2022/07/20 16:58:21;;;;;;;0.77;0.55;;;;;;;;;;4985748;28;20023;-81
2022/07/20 17:00:47;;;;;;;0.10;0.10;;;;;;;;;;4973804;28;20039;-82
2022/07/20 17:03:13;;;;;;;0.10;0.10;;;;;;;;;;4972908;28;20424;-82
2022/07/20 17:05:40;;;;;;;0.10;0.10;;;;;;;;;;4980311;28;20034;-80
2022/07/20 17:08:06;;;;;;;0.10;0.10;;;;;;;;;;4980363;28;20534;-81
2022/07/20 17:10:32;;;;;;;0.10;0.10;;;;;;;;;;4989763;28;20061;-83
2022/07/20 17:12:58;;;;;;;1.35;1.27;;;;;;;;;;4973397;28;20034;-83
2022/07/20 17:15:24;;;;;;;0.10;0.10;;;;;;;;;;4979717;28;20034;-79
2022/07/20 17:17:50;;;;;;;0.10;0.10;;;;;;;;;;4980413;28;20018;-83
2022/07/20 17:20:17;;;;;;;0.10;0.10;;;;;;;;;;4982835;28;20390;-84
2022/07/20 17:22:43;;;;;;;0.10;0.10;;;;;;;;;;4975442;28;20026;-85
2022/07/20 17:25:09;;;;;;;0.10;0.10;;;;;;;;;;4991802;28;20387;-82
2022/07/20 17:27:35;;;;;;;0.10;0.10;;;;;;;;;;4995882;28;20045;-79
2022/07/20 17:30:02;;;;;;;0.10;0.10;;;;;;;;;;4995544;28;20034;-80
2022/07/20 17:32:28;;;;;;;0.10;0.10;;;;;;;;;;4995585;28;20073;-82
2022/07/20 17:34:54;;;;;;;0.10;0.10;;;;;;;;;;4993337;28;20455;-79
2022/07/20 17:37:20;;;;;;;0.10;0.10;;;;;;;;;;4983288;28;20035;-80
2022/07/20 17:39:46;;;;;;;0.10;0.10;;;;;;;;;;4985225;28;20046;-84
2022/07/20 17:42:12;;;;;;;0.13;0.13;;;;;;;;;;4984724;28;20034;-83
2022/07/20 17:44:38;;;;;;;0.10;0.10;;;;;;;;;;4994781;28;20430;-87
2022/07/20 17:47:04;;;;;;;0.10;0.10;;;;;;;;;;4995492;28;20033;-91
2022/07/20 17:49:32;;;;;;;0.10;0.10;;;;;;;;;;4995673;28;20018;-87
2022/07/20 17:51:58;;;;;;;0.10;0.10;;;;;;;;;;4995480;28;20594;-93
2022/07/20 17:54:24;;;;;;;0.10;0.10;;;;;;;;;;4993638;28;20045;-89
2022/07/20 17:56:50;;;;;;;0.10;0.10;;;;;;;;;;4994656;28;20088;-83
2022/07/20 17:59:16;;;;;;;0.10;0.10;;;;;;;;;;4994603;28;20027;-86
2022/07/20 18:01:43;;;;;;;0.10;0.10;;;;;;;;;;4994577;28;20423;-85
2022/07/20 18:04:09;;;;;;;0.10;0.10;;;;;;;;;;4992282;28;20027;-89
2022/07/20 18:06:35;;;;;;;0.10;0.10;;;;;;;;;;4983388;28;20023;-85
2022/07/20 18:09:02;;;;;;;0.10;0.10;;;;;;;;;;4983888;28;20493;-93
2022/07/20 18:11:28;;;;;;;0.10;0.10;;;;;;;;;;4982322;28;20035;-85
2022/07/20 18:13:55;;;;;;;0.10;0.10;;;;;;;;;;4982575;28;20018;-89
2022/07/20 18:16:21;;;;;;;0.68;0.68;;;;;;;;;;4988423;28;20042;-93
2022/07/20 18:18:47;;;;;;;0.10;0.10;;;;;;;;;;4984022;28;20046;-80
2022/07/20 18:21:14;;;;;;;0.10;0.10;;;;;;;;;;4982202;28;20030;-93
2022/07/20 18:23:40;;;;;;;0.10;0.10;;;;;;;;;;4991367;28;20030;-87
2022/07/20 18:26:06;;;;;;;0.10;0.10;;;;;;;;;;4994355;28;20031;-86
2022/07/20 18:28:32;;;;;;;0.10;0.10;;;;;;;;;;4988373;28;20026;-87
2022/07/20 18:30:58;;;;;;;0.10;0.10;;;;;;;;;;4991253;28;20070;-92
2022/07/20 18:33:26;;;;;;;0.10;0.10;;;;;;;;;;4994264;28;20030;-86
2022/07/20 18:35:52;;;;;;;0.10;0.10;;;;;;;;;;4983061;28;20030;-86
2022/07/20 18:38:18;;;;;;;0.10;0.10;;;;;;;;;;4977850;28;20214;-83
2022/07/20 18:40:45;;;;;;;0.10;0.10;;;;;;;;;;4980650;28;20027;-88
2022/07/20 18:43:11;;;;;;;3.05;2.95;;;;;;;;;;4988482;28;20057;-87
2022/07/20 18:48:22;;;;;;;0.10;0.10;;;;;;;;;;4975273;28;20058;-78
2022/07/20 18:50:48;;;;;;;0.40;0.40;;;;;;;;;;4990720;28;20038;-81
2022/07/20 18:53:15;;;;;;;0.10;0.10;;;;;;;;;;4980329;28;20035;-81
2022/07/20 18:55:41;;;;;;;0.10;0.10;;;;;;;;;;4977921;28;20529;-80
2022/07/20 18:58:07;;;;;;;0.10;0.10;;;;;;;;;;4975586;28;20045;-81
2022/07/20 19:00:34;;;;;;;0.10;0.10;;;;;;;;;;4993760;28;20024;-85
2022/07/20 19:03:00;;;;;;;0.10;0.10;;;;;;;;;;4983778;28;20046;-84
2022/07/20 19:05:27;;;;;;;0.10;0.10;;;;;;;;;;4993306;28;20018;-85
2022/07/20 19:07:53;;;;;;;0.10;0.10;;;;;;;;;;4992982;28;20026;-84
2022/07/20 19:10:19;;;;;;;0.10;0.10;;;;;;;;;;4992353;28;20050;-82
2022/07/20 19:12:45;;;;;;;0.10;0.10;;;;;;;;;;4993973;28;20039;-83
2022/07/20 19:15:11;;;;;;;0.10;0.10;;;;;;;;;;4992526;28;20101;-84
2022/07/20 19:17:38;;;;;;;0.10;0.10;;;;;;;;;;5007784;28;20542;-83
2022/07/20 19:20:05;;;;;;;0.10;0.10;;;;;;;;;;5007377;28;20057;-84
2022/07/20 19:22:31;;;;;;;0.10;0.10;;;;;;;;;;5007293;28;20102;-80
2022/07/20 19:24:57;;;;;;;0.10;0.10;;;;;;;;;;4993643;28;20022;-86
2022/07/20 19:27:23;;;;;;;0.10;0.10;;;;;;;;;;5012186;28;20036;-77
2022/07/20 19:29:49;;;;;;;0.00;0.00;;;;;;;;;;4988136;28;20073;-87
2022/07/20 19:32:15;;;;;;;0.10;0.10;;;;;;;;;;4975393;28;20045;-81
2022/07/20 19:34:41;;;;;;;0.10;0.10;;;;;;;;;;4981783;28;20030;-78
2022/07/20 19:37:07;;;;;;;0.10;0.10;;;;;;;;;;4993497;28;20402;-77
2022/07/20 19:39:33;;;;;;;0.10;0.10;;;;;;;;;;4993071;28;20460;-79
2022/07/20 19:42:00;;;;;;;0.10;0.10;;;;;;;;;;4992746;28;20110;-84
2022/07/20 19:44:26;;;;;;;0.10;0.10;;;;;;;;;;4988436;28;20434;-86
2022/07/20 19:46:52;;;;;;;0.10;0.10;;;;;;;;;;4978475;28;20121;-79
2022/07/20 19:49:19;;;;;;;0.10;0.10;;;;;;;;;;4984211;28;20099;-79
2022/07/20 19:51:45;;;;;;;0.10;0.10;;;;;;;;;;4983465;28;20039;-82
2022/07/20 19:54:10;;;;;;;0.10;0.10;;;;;;;;;;4980889;28;20100;-78
2022/07/20 19:56:38;;;;;;;0.10;0.10;;;;;;;;;;4980639;28;20026;-86
2022/07/20 19:59:04;;;;;;;0.10;0.10;;;;;;;;;;4980320;28;20019;-79
2022/07/20 20:01:31;;;;;;;0.10;0.10;;;;;;;;;;4987383;28;20037;-81
2022/07/20 20:03:57;;;;;;;0.10;0.10;;;;;;;;;;4986989;28;20085;-81
2022/07/20 20:06:26;;;;;;;0.10;0.10;;;;;;;;;;4978023;28;20122;-78
2022/07/20 20:08:52;;;;;;;0.10;0.10;;;;;;;;;;4980640;28;20117;-81
2022/07/20 20:11:19;;;;;;;0.10;0.10;;;;;;;;;;4982069;28;20054;-81
2022/07/20 20:13:45;;;;;;;0.10;0.10;;;;;;;;;;4982363;28;20487;-79
2022/07/20 20:16:14;;;;;;;0.10;0.10;;;;;;;;;;4981954;28;20022;-84
2022/07/20 20:18:41;;;;;;;0.10;0.10;;;;;;;;;;4982753;28;20401;-81
2022/07/20 20:21:07;;;;;;;0.10;0.10;;;;;;;;;;4982092;28;20023;-87
2022/07/20 20:23:33;;;;;;;0.10;0.10;;;;;;;;;;4979926;28;20545;-80
2022/07/20 20:26:00;;;;;;;0.10;0.10;;;;;;;;;;4972962;28;20033;-87
2022/07/20 20:28:26;;;;;;;0.10;0.10;;;;;;;;;;4987373;28;20038;-85
2022/07/20 20:30:53;;;;;;;0.10;0.10;;;;;;;;;;4979520;28;20499;-81
2022/07/20 20:33:20;;;;;;;0.10;0.10;;;;;;;;;;4993687;28;20513;-74
2022/07/20 20:35:46;;;;;;;0.10;0.10;;;;;;;;;;4999970;28;20030;-80
2022/07/20 20:38:12;;;;;;;0.10;0.10;;;;;;;;;;4992545;28;20405;-78
2022/07/20 20:40:39;;;;;;;0.10;0.10;;;;;;;;;;4978248;28;20043;-79
2022/07/20 20:43:06;;;;;;;0.10;0.10;;;;;;;;;;4972925;28;20023;-87
2022/07/20 20:45:32;;;;;;;0.10;0.10;;;;;;;;;;4972970;28;20046;-80
2022/07/20 20:47:58;;;;;;;0.10;0.10;;;;;;;;;;4988939;28;20027;-82
2022/07/20 20:50:25;;;;;;;0.10;0.10;;;;;;;;;;4980811;28;20029;-80
2022/07/20 20:52:51;;;;;;;0.10;0.10;;;;;;;;;;4974467;28;20030;-83
2022/07/20 20:55:17;;;;;;;0.10;0.10;;;;;;;;;;4973170;28;20053;-81
2022/07/20 20:57:44;;;;;;;0.10;0.10;;;;;;;;;;4972467;28;20035;-84
2022/07/20 21:00:11;;;;;;;0.10;0.10;;;;;;;;;;4979249;28;20031;-85
2022/07/20 21:02:37;;;;;;;0.10;0.10;;;;;;;;;;4982105;28;20070;-87
2022/07/20 21:05:03;;;;;;;0.10;0.10;;;;;;;;;;4979344;28;20101;-87
2022/07/20 21:07:29;;;;;;;0.10;0.10;;;;;;;;;;4982447;28;20023;-84
2022/07/20 21:09:55;;;;;;;0.10;0.10;;;;;;;;;;4980050;28;20482;-89
2022/07/20 21:12:23;;;;;;;0.05;0.05;;;;;;;;;;4974701;28;20039;-84
2022/07/20 21:14:49;;;;;;;0.10;0.10;;;;;;;;;;4975158;28;20022;-85
2022/07/20 21:17:15;;;;;;;0.10;0.10;;;;;;;;;;4983523;28;20037;-84
2022/07/20 21:19:42;;;;;;;0.10;0.10;;;;;;;;;;4980317;28;20023;-80
2022/07/20 21:22:08;;;;;;;0.10;0.10;;;;;;;;;;4982877;28;20363;-84
2022/07/20 21:24:34;;;;;;;0.10;0.10;;;;;;;;;;4980202;28;20549;-86
2022/07/20 21:27:00;;;;;;;0.10;0.10;;;;;;;;;;4980383;28;20030;-85
2022/07/20 21:29:26;;;;;;;0.10;0.10;;;;;;;;;;4988789;28;20062;-84
2022/07/20 21:31:52;;;;;;;0.10;0.10;;;;;;;;;;4991023;28;20073;-82
2022/07/20 21:34:18;;;;;;;0.10;0.10;;;;;;;;;;4987351;28;20034;-82
2022/07/20 21:36:45;;;;;;;0.10;0.10;;;;;;;;;;4986495;28;20038;-83
2022/07/20 21:39:11;;;;;;;0.10;0.10;;;;;;;;;;4985364;28;20157;-80
2022/07/20 21:41:37;;;;;;;0.10;0.10;;;;;;;;;;4984137;28;20039;-79
2022/07/20 21:44:03;;;;;;;0.10;0.10;;;;;;;;;;4984219;28;20023;-85
2022/07/20 21:46:29;;;;;;;0.10;0.10;;;;;;;;;;4985394;28;20926;-81
2022/07/20 21:48:55;;;;;;;0.10;0.10;;;;;;;;;;4985151;28;20026;-77
2022/07/20 21:51:21;;;;;;;0.10;0.10;;;;;;;;;;4984540;28;20038;-82
2022/07/20 21:53:47;;;;;;;0.10;0.10;;;;;;;;;;4985458;28;20109;-84
2022/07/20 21:56:13;;;;;;;0.10;0.10;;;;;;;;;;4984681;28;20114;-76
2022/07/20 21:58:40;;;;;;;0.10;0.10;;;;;;;;;;4984811;28;20036;-84
2022/07/20 22:01:06;;;;;;;0.10;0.10;;;;;;;;;;4984825;28;20034;-83
2022/07/20 22:03:32;;;;;;;0.10;0.10;;;;;;;;;;4984821;28;20030;-79
2022/07/20 22:05:58;;;;;;;0.10;0.10;;;;;;;;;;4984275;28;20109;-81
2022/07/20 22:08:24;;;;;;;0.10;0.10;;;;;;;;;;4986931;28;20073;-82
2022/07/20 22:10:50;;;;;;;0.10;0.10;;;;;;;;;;4986869;28;20034;-83
2022/07/20 22:13:16;;;;;;;0.10;0.10;;;;;;;;;;4988223;28;20116;-85
2022/07/20 22:15:42;;;;;;;0.10;0.10;;;;;;;;;;4987848;28;20033;-78
2022/07/20 22:18:08;;;;;;;0.10;0.10;;;;;;;;;;4987135;28;20406;-79
2022/07/20 22:20:34;;;;;;;0.10;0.10;;;;;;;;;;4988407;28;20026;-87
2022/07/20 22:23:00;;;;;;;0.10;0.10;;;;;;;;;;5002973;28;20053;-79
2022/07/20 22:25:26;;;;;;;0.10;0.10;;;;;;;;;;4988683;28;20034;-82
2022/07/20 22:27:53;;;;;;;0.10;0.10;;;;;;;;;;4986455;28;20033;-82
2022/07/20 22:30:19;;;;;;;0.05;0.05;;;;;;;;;;4988216;28;20084;-79
2022/07/20 22:32:45;;;;;;;0.10;0.10;;;;;;;;;;4987747;28;20050;-84
2022/07/20 22:35:12;;;;;;;0.10;0.10;;;;;;;;;;4992671;28;20022;-79
2022/07/20 22:37:38;;;;;;;0.10;0.10;;;;;;;;;;4975207;28;20030;-80
2022/07/20 22:40:05;;;;;;;0.10;0.10;;;;;;;;;;4981394;28;20018;-81
2022/07/20 22:42:31;;;;;;;0.10;0.10;;;;;;;;;;4991024;28;20049;-80
2022/07/20 22:44:57;;;;;;;0.10;0.10;;;;;;;;;;4986700;28;20542;-82
2022/07/20 22:47:23;;;;;;;0.10;0.10;;;;;;;;;;4988362;28;20490;-82
2022/07/20 22:49:49;;;;;;;0.10;0.10;;;;;;;;;;4987798;28;20501;-83
2022/07/20 22:52:16;;;;;;;0.10;0.10;;;;;;;;;;4987800;28;20053;-79
2022/07/20 22:54:42;;;;;;;0.10;0.10;;;;;;;;;;4987801;28;20030;-81
2022/07/20 22:59:53;;;;;;;0.10;0.10;;;;;;;;;;4988876;28;20058;-82
2022/07/20 23:02:19;;;;;;;0.10;0.10;;;;;;;;;;5003108;28;20466;-83
2022/07/20 23:04:45;;;;;;;0.10;0.10;;;;;;;;;;4986962;28;20516;-87
2022/07/20 23:07:11;;;;;;;0.10;0.10;;;;;;;;;;4987387;28;20034;-79
2022/07/20 23:09:37;;;;;;;0.10;0.10;;;;;;;;;;4987498;28;20164;-85
2022/07/20 23:12:03;;;;;;;0.10;0.10;;;;;;;;;;4986721;28;20034;-78
2022/07/20 23:14:29;;;;;;;0.10;0.10;;;;;;;;;;4988572;28;20532;-83
2022/07/20 23:16:55;;;;;;;0.10;0.10;;;;;;;;;;4987320;28;20030;-80
2022/07/20 23:19:21;;;;;;;0.10;0.10;;;;;;;;;;4985159;28;20038;-79
2022/07/20 23:21:48;;;;;;;0.10;0.10;;;;;;;;;;4987708;28;20034;-83
2022/07/20 23:24:14;;;;;;;0.10;0.10;;;;;;;;;;4993461;28;20068;-81
2022/07/20 23:26:40;;;;;;;0.10;0.10;;;;;;;;;;4993431;28;20114;-80
2022/07/20 23:29:06;;;;;;;0.10;0.10;;;;;;;;;;4993422;28;20031;-80
2022/07/20 23:31:32;;;;;;;0.10;0.10;;;;;;;;;;4989127;28;20041;-81
2022/07/20 23:33:58;;;;;;;0.08;0.08;;;;;;;;;;4987150;28;20088;-78
2022/07/20 23:36:24;;;;;;;0.10;0.10;;;;;;;;;;4987576;28;20035;-84
2022/07/20 23:38:50;;;;;;;0.10;0.10;;;;;;;;;;4986757;28;20498;-78
2022/07/20 23:41:16;;;;;;;0.10;0.10;;;;;;;;;;4987159;28;20116;-80
2022/07/20 23:43:44;;;;;;;0.10;0.10;;;;;;;;;;4986657;28;20145;-79
2022/07/20 23:46:11;;;;;;;0.10;0.10;;;;;;;;;;4987073;28;20022;-81
2022/07/20 23:48:37;;;;;;;0.10;0.10;;;;;;;;;;4987667;28;20027;-82
2022/07/20 23:51:03;;;;;;;0.10;0.10;;;;;;;;;;4986656;28;20528;-80
2022/07/20 23:53:29;;;;;;;0.10;0.10;;;;;;;;;;4986708;28;20030;-77
2022/07/20 23:55:55;;;;;;;0.10;0.10;;;;;;;;;;4986680;28;20137;-81
2022/07/20 23:58:21;;;;;;;0.10;0.10;;;;;;;;;;4986484;28;20114;-76
